createdAt,value
2018-07-14T07:54:54.831Z,33.60
2018-07-14T08:24:45.508Z,33.50
2018-07-14T08:56:59.239Z,21.20
2018-07-14T09:36:38.817Z,19.00
2018-07-14T09:39:08.338Z,17.20
2018-07-14T09:41:37.582Z,16.30
2018-07-14T09:46:35.034Z,20.55
2018-07-14T09:56:29.725Z,21.15
2018-07-14T09:58:58.674Z,21.55
2018-07-14T10:01:28.128Z,14.60
2018-07-14T10:03:57.809Z,14.00
2018-07-14T10:13:51.904Z,25.30
2018-07-14T10:28:43.053Z,11.70
2018-07-14T10:31:11.852Z,10.20
2018-07-14T10:33:44.387Z,10.80
2018-07-14T10:36:13.662Z,14.73
2018-07-14T10:43:39.414Z,10.50
2018-07-14T10:46:08.342Z,8.40
2018-07-14T10:48:37.687Z,12.67
2018-07-14T10:56:04.518Z,12.00
2018-07-14T10:58:33.820Z,8.00
2018-07-14T11:01:03.099Z,7.80
2018-07-14T11:03:32.475Z,10.80
2018-07-14T11:06:01.378Z,8.20
2018-07-14T11:08:30.518Z,11.77
2018-07-14T11:13:28.220Z,8.90
2018-07-14T11:15:56.932Z,15.50
2018-07-14T11:18:25.652Z,6.10
2018-07-14T11:28:20.728Z,10.60
2018-07-14T11:30:49.851Z,11.10
2018-07-14T11:33:19.324Z,5.50
2018-07-14T11:38:16.785Z,6.65
2018-07-14T11:40:46.692Z,4.20
2018-07-14T11:50:41.062Z,5.10
2018-07-14T11:53:10.031Z,4.33
2018-07-14T11:55:39.912Z,5.20
2018-07-14T11:58:09.368Z,6.30
2018-07-14T12:00:38.256Z,6.60
2018-07-14T12:03:07.420Z,8.17
2018-07-14T12:05:36.515Z,4.23
2018-07-14T12:08:05.815Z,5.53
2018-07-14T12:10:34.810Z,3.00
2018-07-14T12:13:04.003Z,6.20
2018-07-14T12:15:33.065Z,3.73
2018-07-14T12:18:02.195Z,4.97
2018-07-14T12:20:31.195Z,4.13
2018-07-14T12:23:00.298Z,4.97
2018-07-14T12:25:29.265Z,4.43
2018-07-14T12:27:57.869Z,6.67
2018-07-14T12:30:26.931Z,5.67
2018-07-14T12:32:56.282Z,5.60
2018-07-14T12:35:25.491Z,7.20
2018-07-14T12:37:54.293Z,5.70
2018-07-14T12:40:22.948Z,8.00
2018-07-14T12:42:51.534Z,5.90
2018-07-14T12:45:20.077Z,20.30
2018-07-14T12:47:48.653Z,6.40
2018-07-14T12:50:17.164Z,3.80
2018-07-14T12:52:45.847Z,3.90
2018-07-14T12:55:14.430Z,4.33
2018-07-14T12:57:43.089Z,3.80
2018-07-14T13:00:11.771Z,3.67
2018-07-14T13:02:40.387Z,3.20
2018-07-14T13:05:08.996Z,4.50
2018-07-14T13:07:37.583Z,4.30
2018-07-14T13:10:07.058Z,4.10
2018-07-14T13:12:35.704Z,9.10
2018-07-14T13:15:04.440Z,7.03
2018-07-14T13:17:32.966Z,4.67
2018-07-14T13:20:06.906Z,3.70
2018-07-14T13:22:38.838Z,5.70
2018-07-14T13:25:10.442Z,3.30
2018-07-14T13:27:40.449Z,8.33
2018-07-14T13:30:13.241Z,11.83
2018-07-14T13:32:41.918Z,2.97
2018-07-14T13:35:10.758Z,5.73
2018-07-14T13:37:39.828Z,3.80
2018-07-14T13:40:09.747Z,6.90
2018-07-14T13:42:39.668Z,3.87
2018-07-14T13:45:09.765Z,3.43
2018-07-14T13:47:39.544Z,4.30
2018-07-14T13:50:08.581Z,4.10
2018-07-14T13:54:06.658Z,4.50
2018-07-14T13:56:38.920Z,3.47
2018-07-14T13:59:10.389Z,7.53
2018-07-14T14:01:42.613Z,3.40
2018-07-14T14:04:11.226Z,9.30
2018-07-14T14:06:43.426Z,7.90
2018-07-14T14:09:13.590Z,5.53
2018-07-14T14:11:44.681Z,6.60
2018-07-14T14:14:13.726Z,4.10
2018-07-14T14:16:43.962Z,9.30
2018-07-14T14:19:12.801Z,3.43
2018-07-14T14:21:41.295Z,6.20
2018-07-14T14:24:09.741Z,8.78
2018-07-14T14:26:38.333Z,6.67
2018-07-14T14:29:07.073Z,2.80
2018-07-14T14:31:35.922Z,3.07
2018-07-14T14:34:04.440Z,6.70
2018-07-14T14:36:32.964Z,3.60
2018-07-14T14:39:01.462Z,2.83
2018-07-14T14:41:30.001Z,3.20
2018-07-14T14:43:58.468Z,8.50
2018-07-14T14:46:27.006Z,3.20
2018-07-14T14:48:55.532Z,7.20
2018-07-14T14:51:24.048Z,3.13
2018-07-14T14:53:53.344Z,3.10
2018-07-14T14:56:22.656Z,4.57
2018-07-14T14:58:53.830Z,4.23
2018-07-14T15:01:23.916Z,7.03
2018-07-14T15:03:54.006Z,3.27
2018-07-14T15:06:24.402Z,5.30
2018-07-14T15:08:53.755Z,2.83
2018-07-14T15:11:24.644Z,4.10
2018-07-14T15:13:54.420Z,3.35
2018-07-14T15:16:23.545Z,4.57
2018-07-14T15:18:58.528Z,4.87
2018-07-14T15:21:34.561Z,3.20
2018-07-14T15:24:03.854Z,5.80
2018-07-14T15:27:05.634Z,2.37
2018-07-14T15:29:35.707Z,4.42
2018-07-14T15:35:11.235Z,3.47
2018-07-14T15:37:39.919Z,3.30
2018-07-14T15:40:08.961Z,7.63
2018-07-14T15:42:38.118Z,3.40
2018-07-14T15:45:07.264Z,2.70
2018-07-14T15:47:36.333Z,2.45
2018-07-14T15:50:05.567Z,2.90
2018-07-14T15:52:35.038Z,2.75
2018-07-14T15:55:04.387Z,3.97
2018-07-14T15:57:33.616Z,2.60
2018-07-14T16:00:02.420Z,3.60
2018-07-14T16:02:31.636Z,3.20
2018-07-14T16:05:00.662Z,4.40
2018-07-14T16:07:29.424Z,2.93
2018-07-14T16:09:58.166Z,2.27
2018-07-14T16:12:26.923Z,2.80
2018-07-14T16:14:56.987Z,3.50
2018-07-14T16:17:25.709Z,7.20
2018-07-14T16:19:54.808Z,4.17
2018-07-14T16:22:23.750Z,4.87
2018-07-14T16:24:52.702Z,3.70
2018-07-14T16:27:21.817Z,4.40
2018-07-14T16:29:50.405Z,2.43
2018-07-14T16:32:18.965Z,3.93
2018-07-14T16:34:47.569Z,2.33
2018-07-14T16:37:16.471Z,2.83
2018-07-14T16:39:45.018Z,3.17
2018-07-14T16:42:13.553Z,4.80
2018-07-14T16:44:42.168Z,2.87
2018-07-14T16:47:10.859Z,8.60
2018-07-14T16:49:39.636Z,4.10
2018-07-14T16:52:08.105Z,5.33
2018-07-14T16:54:36.775Z,3.33
2018-07-14T16:57:05.709Z,2.40
2018-07-14T16:59:34.377Z,2.80
2018-07-14T17:02:02.967Z,4.63
2018-07-14T17:04:31.577Z,5.40
2018-07-14T17:07:00.167Z,8.77
2018-07-14T17:09:28.796Z,3.27
2018-07-14T17:11:58.347Z,4.20
2018-07-14T17:14:27.062Z,8.40
2018-07-14T17:16:55.670Z,9.90
2018-07-14T17:19:24.127Z,4.03
2018-07-14T17:21:59.227Z,2.80
2018-07-14T17:24:27.787Z,3.30
2018-07-14T17:26:56.345Z,3.63
2018-07-14T17:29:24.960Z,9.50
2018-07-14T17:31:53.657Z,7.00
2018-07-14T17:34:22.211Z,7.97
2018-07-14T17:36:50.813Z,4.83
2018-07-14T17:39:19.263Z,7.05
2018-07-14T17:41:47.870Z,5.60
2018-07-14T17:44:16.999Z,9.33
2018-07-14T17:46:45.637Z,25.03
2018-07-14T17:49:14.256Z,24.10
2018-07-14T17:51:42.863Z,6.70
2018-07-14T17:54:11.408Z,3.70
2018-07-14T17:59:07.803Z,5.70
2018-07-14T18:04:04.423Z,6.50
2018-07-14T18:06:33.044Z,5.70
2018-07-14T18:09:01.619Z,4.40
2018-07-14T18:11:30.247Z,9.27
2018-07-14T18:38:37.464Z,5.90
2018-07-14T18:41:06.109Z,8.63
2018-07-14T18:43:34.684Z,8.30
2018-07-14T18:46:03.427Z,4.30
2018-07-14T18:48:31.897Z,4.53
2018-07-14T18:51:00.391Z,15.20
2018-07-14T18:53:28.988Z,6.85
2018-07-14T19:03:21.215Z,5.20
2018-07-14T19:13:13.345Z,4.50
2018-07-14T19:23:07.203Z,4.40
2018-07-14T19:30:32.288Z,4.35
2018-07-14T19:42:53.081Z,7.90
2018-07-14T20:07:32.317Z,5.60
2018-07-14T20:32:11.968Z,10.60
2018-07-14T22:25:40.105Z,35.00
